Terminal Aerodrome Forecast
Issued by NWS Albuquerque, NM

Home | Current Version | Previous Version | Text Only | Print | Product List | Glossary On
Versions: 1 2 3 4 5 6 7 8 9 10 11 12 13 14 15
000
FTUS45 KABQ 211100
TAFABQ
TAF
KABQ 211130Z 2112/2212 14006KT P6SM FEW120
     FM212000 23008KT P6SM FEW090
     FM212200 25010KT P6SM VCSH SCT100
     FM220100 34007KT P6SM BKN120
     FM220600 VRB06KT P6SM SCT120=

USA.gov is the U.S. government's official web portal to all federal, state and local government web resources and services.